Time;durP1;ratioP1;P1;durP2;ratioP2;P2;SDS_P1;SDS_P2;PMS_P1;PMS_P2;Temp;Humidity;BMP_temperature;BMP_pressure;BME280_temperature;BME280_humidity;BME280_pressure;Samples;Min_cycle;Max_cycle;Signal;HPM_P1;HPM_P2
2021/04/11 00:00:57;;;;;;;36.28;22.52;;;9.60;95.60;;;;;;5024138;28;20485;-67
2021/04/11 00:03:25;;;;;;;30.48;21.00;;;9.50;95.90;;;;;;5014164;28;20041;-66
2021/04/11 00:05:51;;;;;;;41.72;23.98;;;9.50;95.80;;;;;;5011394;28;20030;-67
2021/04/11 00:08:18;;;;;;;34.58;23.38;;;9.50;95.80;;;;;;5012723;28;20036;-67
2021/04/11 00:10:55;;;;;;;35.80;22.35;;;9.50;95.80;;;;;;5003799;28;20026;-66
2021/04/11 00:13:25;;;;;;;38.78;23.92;;;9.50;96.00;;;;;;5012778;28;20403;-67
2021/04/11 00:15:50;;;;;;;36.85;22.98;;;9.40;96.00;;;;;;5023391;28;20088;-67
2021/04/11 00:18:16;;;;;;;38.55;24.52;;;9.40;96.00;;;;;;5015143;28;20026;-67
2021/04/11 00:20:42;;;;;;;35.47;23.88;;;9.40;96.20;;;;;;5010345;28;20113;-67
2021/04/11 00:23:08;;;;;;;39.10;23.42;;;9.40;96.10;;;;;;5012300;28;20460;-67
2021/04/11 00:25:39;;;;;;;37.40;23.95;;;9.40;96.20;;;;;;5015158;28;20022;-67
2021/04/11 00:28:05;;;;;;;37.45;24.73;;;9.40;96.20;;;;;;5004050;28;20034;-66
2021/04/11 00:30:31;;;;;;;37.15;25.08;;;9.40;96.20;;;;;;5010198;28;20044;-67
2021/04/11 00:32:59;;;;;;;36.55;23.23;;;9.40;96.30;;;;;;4993708;28;20025;-66
2021/04/11 00:35:26;;;;;;;37.97;24.05;;;9.40;96.30;;;;;;5019490;28;20064;-66
2021/04/11 00:37:52;;;;;;;38.33;24.85;;;9.40;96.40;;;;;;5014052;28;20042;-66
2021/04/11 00:40:25;;;;;;;36.78;24.63;;;9.40;96.40;;;;;;5010812;28;20026;-66
2021/04/11 00:43:05;;;;;;;42.55;25.63;;;9.40;96.50;;;;;;5011549;28;20033;-66
2021/04/11 00:45:40;;;;;;;39.55;24.80;;;9.40;96.50;;;;;;5019672;28;20417;-67
2021/04/11 00:48:08;;;;;;;41.85;25.75;;;9.40;96.60;;;;;;5011462;28;20541;-67
2021/04/11 00:50:33;;;;;;;40.33;26.30;;;9.40;96.60;;;;;;5008769;28;20026;-66
2021/04/11 00:52:59;;;;;;;39.05;25.42;;;9.40;96.60;;;;;;5012350;28;20055;-66
2021/04/11 00:55:26;;;;;;;41.53;26.05;;;9.40;96.60;;;;;;4993791;28;20038;-66
2021/04/11 00:57:53;;;;;;;42.95;26.65;;;9.40;96.70;;;;;;5012475;28;20125;-66
2021/04/11 01:00:23;;;;;;;42.58;27.13;;;9.40;96.80;;;;;;5011017;28;20426;-66
2021/04/11 01:02:48;;;;;;;36.55;24.77;;;9.40;96.80;;;;;;5011786;28;20037;-66
2021/04/11 01:05:23;;;;;;;43.72;26.65;;;9.40;96.80;;;;;;5016081;28;20018;-67
2021/04/11 01:07:50;;;;;;;40.38;27.08;;;9.40;96.80;;;;;;5008035;28;20037;-67
2021/04/11 01:10:22;;;;;;;44.35;27.10;;;9.40;96.90;;;;;;5010338;28;20029;-67
2021/04/11 01:12:48;;;;;;;44.13;26.55;;;9.40;97.10;;;;;;5011778;28;20026;-66
2021/04/11 01:15:29;;;;;;;44.08;28.02;;;9.40;97.00;;;;;;5014531;28;20036;-67
2021/04/11 01:17:55;;;;;;;43.20;28.08;;;9.40;97.00;;;;;;5010592;28;20053;-67
2021/04/11 01:20:21;;;;;;;39.90;26.42;;;9.40;97.20;;;;;;4997716;28;20034;-67
2021/04/11 01:23:33;;;;;;;43.17;26.95;;;9.40;97.10;;;;;;5011873;28;20026;-67
2021/04/11 01:26:00;;;;;;;45.40;27.00;;;9.40;97.10;;;;;;5021748;28;20041;-67
2021/04/11 01:28:32;;;;;;;42.13;28.67;;;9.30;97.20;;;;;;5000471;28;20106;-67
2021/04/11 01:30:59;;;;;;;42.03;28.17;;;9.30;97.30;;;;;;5006645;28;20034;-67
2021/04/11 01:33:28;;;;;;;43.75;28.40;;;9.30;97.20;;;;;;5018393;28;20034;-67
2021/04/11 01:35:56;;;;;;;44.00;27.17;;;9.30;97.30;;;;;;5011518;28;20110;-67
2021/04/11 01:38:23;;;;;;;41.17;27.10;;;9.30;97.20;;;;;;4994163;28;20061;-67
2021/04/11 01:41:26;;;;;;;44.40;28.33;;;9.40;97.30;;;;;;5002922;28;20441;-67
2021/04/11 01:43:52;;;;;;;43.05;27.23;;;9.40;97.30;;;;;;4992457;28;20065;-67
2021/04/11 01:46:20;;;;;;;47.42;28.38;;;9.30;97.20;;;;;;5006992;28;20093;-67
2021/04/11 01:48:47;;;;;;;45.13;28.70;;;9.40;97.30;;;;;;5011765;28;20033;-67
2021/04/11 01:51:15;;;;;;;43.85;27.90;;;9.40;97.30;;;;;;5010995;28;20379;-66
2021/04/11 01:53:43;;;;;;;40.95;28.10;;;9.40;97.40;;;;;;5011030;28;20058;-66
2021/04/11 01:56:10;;;;;;;45.65;29.90;;;9.40;97.40;;;;;;5003344;28;20392;-66
2021/04/11 01:58:37;;;;;;;47.95;30.35;;;9.40;97.50;;;;;;4991999;28;20513;-65
2021/04/11 02:01:30;;;;;;;46.15;29.63;;;9.40;97.50;;;;;;5013464;28;20061;-66
2021/04/11 02:03:57;;;;;;;45.75;30.08;;;9.40;97.40;;;;;;5023496;28;20033;-66
2021/04/11 02:06:25;;;;;;;42.58;28.67;;;9.40;97.50;;;;;;5018973;28;20478;-66
2021/04/11 02:08:54;;;;;;;45.97;29.80;;;9.40;97.40;;;;;;5010672;28;20022;-66
2021/04/11 02:11:20;;;;;;;49.17;29.40;;;9.40;97.50;;;;;;5016672;28;20030;-65
2021/04/11 02:13:46;;;;;;;46.58;29.95;;;9.40;97.50;;;;;;5010314;28;20041;-65
2021/04/11 02:16:14;;;;;;;47.97;32.33;;;9.40;97.60;;;;;;5017938;28;20026;-65
2021/04/11 02:18:40;;;;;;;47.65;30.50;;;9.40;97.70;;;;;;5011348;28;20037;-66
2021/04/11 02:21:14;;;;;;;52.28;32.75;;;9.30;97.70;;;;;;5016572;28;20018;-65
2021/04/11 02:23:40;;;;;;;49.67;32.53;;;9.30;97.80;;;;;;5010833;28;20112;-65
2021/04/11 02:26:10;;;;;;;50.13;32.03;;;9.30;97.70;;;;;;5008847;28;20062;-66
2021/04/11 02:28:37;;;;;;;50.90;32.25;;;9.30;97.80;;;;;;5023984;28;20145;-65
2021/04/11 02:31:17;;;;;;;50.03;31.50;;;9.40;97.70;;;;;;5015476;28;20036;-67
2021/04/11 02:33:48;;;;;;;55.67;33.65;;;9.30;97.80;;;;;;5011079;28;20034;-66
2021/04/11 02:36:15;;;;;;;51.47;32.38;;;9.30;97.80;;;;;;5004178;28;20026;-66
2021/04/11 02:38:42;;;;;;;48.15;30.67;;;9.30;97.80;;;;;;5004357;28;20096;-66
2021/04/11 02:41:08;;;;;;;51.72;33.47;;;9.30;97.80;;;;;;5016078;28;20025;-66
2021/04/11 02:43:33;;;;;;;50.45;32.28;;;9.30;97.80;;;;;;5011059;28;20105;-66
2021/04/11 02:45:59;;;;;;;53.53;33.80;;;9.30;97.90;;;;;;5018362;28;20026;-66
2021/04/11 02:48:25;;;;;;;53.30;32.40;;;9.30;98.00;;;;;;5014355;28;20076;-66
2021/04/11 02:50:51;;;;;;;54.80;33.97;;;9.20;97.90;;;;;;5021301;28;20037;-66
2021/04/11 02:53:22;;;;;;;53.58;33.53;;;9.20;97.90;;;;;;5014690;28;20109;-66
2021/04/11 02:55:48;;;;;;;51.55;33.22;;;9.30;98.00;;;;;;5021666;28;20034;-66
2021/04/11 02:58:16;;;;;;;55.53;32.70;;;9.20;98.10;;;;;;5014120;28;20092;-66
2021/04/11 03:01:05;;;;;;;53.30;32.10;;;9.30;98.10;;;;;;5013819;28;20057;-66
2021/04/11 03:03:31;;;;;;;55.92;34.65;;;9.30;98.10;;;;;;5026521;28;20029;-66
2021/04/11 03:06:00;;;;;;;52.72;32.72;;;9.30;98.00;;;;;;5022618;28;20128;-66
2021/04/11 03:08:30;;;;;;;53.55;34.25;;;9.30;98.00;;;;;;4996046;28;20375;-66
2021/04/11 03:11:15;;;;;;;53.53;35.55;;;9.30;98.00;;;;;;5012870;28;20038;-66
2021/04/11 03:13:42;;;;;;;57.83;35.05;;;9.30;98.10;;;;;;5004398;28;20036;-66
2021/04/11 03:16:07;;;;;;;54.10;33.90;;;9.30;98.00;;;;;;5016394;28;20034;-66
2021/04/11 03:18:34;;;;;;;57.97;35.05;;;9.30;98.00;;;;;;5026793;28;20096;-66
2021/04/11 03:21:00;;;;;;;51.72;32.90;;;9.30;98.10;;;;;;5021448;28;20029;-66
2021/04/11 03:23:25;;;;;;;55.53;36.38;;;9.30;98.00;;;;;;5013914;28;20037;-66
2021/04/11 03:26:08;;;;;;;56.22;35.67;;;9.30;98.10;;;;;;5013109;28;20030;-67
2021/04/11 03:28:40;;;;;;;59.50;36.20;;;9.30;98.20;;;;;;4992391;28;20026;-65
2021/04/11 03:31:16;;;;;;;58.47;35.13;;;9.30;98.20;;;;;;5020859;28;20128;-66
2021/04/11 03:33:45;;;;;;;49.33;33.65;;;9.30;98.20;;;;;;5001839;28;20029;-67
2021/04/11 03:36:15;;;;;;;58.17;35.42;;;9.30;98.20;;;;;;4994514;28;20045;-67
2021/04/11 03:38:42;;;;;;;59.25;36.78;;;9.30;98.20;;;;;;5013755;28;20061;-65
2021/04/11 03:41:08;;;;;;;60.08;35.50;;;9.30;98.30;;;;;;5019797;28;20026;-64
2021/04/11 03:43:42;;;;;;;60.53;35.55;;;9.30;98.20;;;;;;5013294;28;20045;-64
2021/04/11 03:46:36;;;;;;;56.47;37.40;;;9.30;98.20;;;;;;5013237;28;20379;-64
2021/04/11 03:49:15;;;;;;;51.63;32.80;;;9.30;98.20;;;;;;5013241;28;20037;-68
2021/04/11 03:51:42;;;;;;;54.90;32.97;;;9.30;98.20;;;;;;5012195;28;20038;-66
2021/04/11 03:54:18;;;;;;;57.15;36.53;;;9.30;98.10;;;;;;5012896;28;20026;-65
2021/04/11 03:57:06;;;;;;;58.80;37.38;;;9.30;98.30;;;;;;5012501;28;20041;-65
2021/04/11 03:59:35;;;;;;;56.90;35.42;;;9.30;98.20;;;;;;5013770;28;20044;-66
2021/04/11 04:02:00;;;;;;;58.25;36.90;;;9.30;98.20;;;;;;5031051;28;20041;-66
2021/04/11 04:04:27;;;;;;;58.33;37.30;;;9.40;98.30;;;;;;5018867;28;20026;-65
2021/04/11 04:07:20;;;;;;;54.05;34.15;;;9.30;98.30;;;;;;4993301;28;20077;-67
2021/04/11 04:10:06;;;;;;;56.83;35.83;;;9.40;98.20;;;;;;5009521;28;20041;-67
2021/04/11 04:12:53;;;;;;;62.30;37.03;;;9.40;98.20;;;;;;5014447;28;20398;-66
2021/04/11 04:15:43;;;;;;;63.28;38.40;;;9.40;98.20;;;;;;5009984;28;20018;-66
2021/04/11 04:18:37;;;;;;;59.85;37.58;;;9.40;98.20;;;;;;5012683;28;20029;-66
2021/04/11 04:21:37;;;;;;;64.22;39.75;;;9.40;98.20;;;;;;5010060;28;20045;-66
2021/04/11 04:24:27;;;;;;;56.65;36.33;;;9.40;98.20;;;;;;5022134;28;20482;-67
2021/04/11 04:27:00;;;;;;;51.47;33.35;;;9.40;98.20;;;;;;5011516;28;20045;-66
2021/04/11 04:30:21;;;;;;;53.28;34.45;;;9.40;98.20;;;;;;5012383;28;20332;-66
2021/04/11 04:33:06;;;;;;;60.40;37.85;;;9.40;98.20;;;;;;4922534;28;20273;-66
2021/04/11 04:35:59;;;;;;;50.80;35.10;;;9.40;98.10;;;;;;5012538;28;20025;-65
2021/04/11 04:38:57;;;;;;;55.97;35.72;;;9.40;98.10;;;;;;5012483;28;20092;-65
2021/04/11 04:41:44;;;;;;;52.63;34.55;;;9.40;98.00;;;;;;5013639;28;20048;-66
2021/04/11 04:44:34;;;;;;;58.55;37.30;;;9.50;98.00;;;;;;5010393;28;20038;-67
2021/04/11 04:47:11;;;;;;;57.08;36.40;;;9.50;98.00;;;;;;5017060;28;20161;-67
2021/04/11 04:49:50;;;;;;;65.75;37.33;;;9.50;98.00;;;;;;5018258;28;20050;-66
2021/04/11 04:52:19;;;;;;;52.05;33.75;;;9.50;98.20;;;;;;5011346;28;20037;-66
2021/04/11 04:54:50;;;;;;;61.95;39.28;;;9.50;98.00;;;;;;5010862;28;20033;-67
2021/04/11 04:57:28;;;;;;;60.20;37.22;;;9.50;98.10;;;;;;5019003;28;20049;-66
2021/04/11 05:00:06;;;;;;;56.95;35.40;;;9.60;98.00;;;;;;5012557;28;20070;-66
2021/04/11 05:02:42;;;;;;;58.90;37.70;;;9.60;98.00;;;;;;5019725;28;20107;-67
2021/04/11 05:05:09;;;;;;;57.33;37.00;;;9.60;98.00;;;;;;5013731;28;20028;-67
2021/04/11 05:07:42;;;;;;;60.17;37.58;;;9.60;98.00;;;;;;5018952;28;20493;-67
2021/04/11 05:10:24;;;;;;;64.93;40.85;;;9.60;98.00;;;;;;5013441;28;20030;-67
2021/04/11 05:13:12;;;;;;;60.15;39.58;;;9.60;98.00;;;;;;5016602;28;20033;-67
2021/04/11 05:15:42;;;;;;;59.58;37.15;;;9.60;98.00;;;;;;5016349;28;20041;-66
2021/04/11 05:18:18;;;;;;;58.38;38.55;;;9.70;98.00;;;;;;4996825;28;20578;-67
2021/04/11 05:20:55;;;;;;;58.05;37.88;;;9.70;98.00;;;;;;5019372;28;20099;-67
2021/04/11 05:23:38;;;;;;;58.53;37.05;;;9.70;98.10;;;;;;5008515;28;20030;-67
2021/04/11 05:26:35;;;;;;;56.92;35.58;;;9.70;98.10;;;;;;5018536;28;20132;-66
2021/04/11 05:29:11;;;;;;;56.28;36.90;;;9.80;97.90;;;;;;5011157;28;20412;-66
2021/04/11 05:31:39;;;;;;;54.85;36.72;;;9.80;97.90;;;;;;5019921;28;20125;-67
2021/04/11 05:34:07;;;;;;;59.00;36.88;;;9.80;97.90;;;;;;5010223;28;20128;-66
2021/04/11 05:36:45;;;;;;;60.13;37.15;;;9.80;97.90;;;;;;5017434;28;20033;-66
2021/04/11 05:39:47;;;;;;;54.67;36.10;;;9.90;97.90;;;;;;5011173;28;20034;-66
2021/04/11 05:42:24;;;;;;;58.53;37.67;;;9.90;97.90;;;;;;5017581;28;20033;-65
2021/04/11 05:44:58;;;;;;;56.83;37.25;;;9.90;97.90;;;;;;5010474;28;20034;-64
2021/04/11 05:47:29;;;;;;;;;;;9.90;97.80;;;;;;5016987;28;20422;-64
2021/04/11 05:50:21;;;;;;;56.35;35.95;;;9.90;97.70;;;;;;5012270;28;20246;-64
2021/04/11 05:53:01;;;;;;;59.92;37.08;;;9.90;97.70;;;;;;5022093;28;20394;-65
2021/04/11 05:55:32;;;;;;;53.17;36.20;;;10.00;97.70;;;;;;5015908;28;20022;-65
2021/04/11 05:58:01;;;;;;;54.55;35.70;;;9.90;97.60;;;;;;5010608;28;20519;-64
2021/04/11 06:00:52;;;;;;;54.75;36.95;;;10.00;97.60;;;;;;5009745;28;20061;-64
2021/04/11 06:03:25;;;;;;;62.05;39.58;;;10.00;97.70;;;;;;5010854;28;20169;-65
2021/04/11 06:06:23;;;;;;;57.05;36.75;;;9.90;97.60;;;;;;5009035;28;20068;-65
2021/04/11 06:09:12;;;;;;;61.03;36.88;;;9.90;97.60;;;;;;5010578;28;20395;-67
2021/04/11 06:11:42;;;;;;;62.35;38.92;;;9.90;97.60;;;;;;5010217;28;20034;-67
2021/04/11 06:14:25;;;;;;;54.65;36.80;;;9.90;97.60;;;;;;5010917;28;20389;-67
2021/04/11 06:16:51;;;;;;;57.00;34.88;;;9.90;97.50;;;;;;5011975;28;20088;-66
2021/04/11 06:19:19;;;;;;;55.28;36.40;;;9.90;97.60;;;;;;5010501;28;20473;-66
2021/04/11 06:22:11;;;;;;;56.53;36.97;;;9.90;97.60;;;;;;5015244;28;20033;-65
2021/04/11 06:24:55;;;;;;;59.25;37.03;;;9.90;97.50;;;;;;5013826;28;20553;-64
2021/04/11 06:27:49;;;;;;;60.35;37.38;;;9.90;97.50;;;;;;5011711;28;20041;-67
2021/04/11 06:30:31;;;;;;;57.85;36.95;;;9.90;97.50;;;;;;5012601;28;20549;-67
2021/04/11 06:33:13;;;;;;;54.75;36.50;;;9.90;97.60;;;;;;4996247;28;20050;-65
2021/04/11 06:35:58;;;;;;;57.50;37.85;;;10.00;97.60;;;;;;5017561;28;20541;-69
2021/04/11 06:38:37;;;;;;;55.07;32.90;;;10.00;97.60;;;;;;5014280;28;20084;-67
2021/04/11 06:41:23;;;;;;;58.90;36.30;;;10.00;97.50;;;;;;5017706;28;20754;-66
2021/04/11 06:44:13;;;;;;;59.28;37.63;;;10.10;97.60;;;;;;5014879;28;20022;-67
2021/04/11 06:46:59;;;;;;;58.42;38.05;;;10.20;97.50;;;;;;5018328;28;20509;-67
2021/04/11 06:49:58;;;;;;;58.63;36.90;;;10.20;97.50;;;;;;5014102;28;20053;-67
2021/04/11 06:52:51;;;;;;;55.47;35.40;;;10.20;97.40;;;;;;5011411;28;20625;-66
2021/04/11 06:55:41;;;;;;;57.13;37.67;;;10.40;97.50;;;;;;5019458;28;20470;-66
2021/04/11 06:58:34;;;;;;;54.33;34.80;;;10.40;97.50;;;;;;5011940;28;20034;-66
2021/04/11 07:01:23;;;;;;;51.40;33.75;;;10.50;97.40;;;;;;5024557;28;20046;-66
2021/04/11 07:04:18;;;;;;;53.97;35.25;;;10.60;97.30;;;;;;4996927;28;20129;-66
2021/04/11 07:07:32;;;;;;;53.33;34.25;;;10.70;97.10;;;;;;5019163;28;20045;-65
2021/04/11 07:10:34;;;;;;;52.58;35.08;;;10.80;96.90;;;;;;4918528;29;20500;-66
2021/04/11 07:13:18;;;;;;;51.28;32.95;;;10.90;96.90;;;;;;4995664;28;20192;-67
2021/04/11 07:16:16;;;;;;;52.67;33.03;;;11.00;96.70;;;;;;5012145;28;20125;-66
2021/04/11 07:19:03;;;;;;;46.25;32.70;;;11.10;96.70;;;;;;5017176;28;20045;-66
2021/04/11 07:21:49;;;;;;;53.80;33.80;;;11.20;96.50;;;;;;5020308;28;20030;-67
2021/04/11 07:24:39;;;;;;;45.70;31.98;;;11.20;96.30;;;;;;5013418;28;20048;-67
2021/04/11 07:27:34;;;;;;;48.88;33.58;;;11.40;96.30;;;;;;5000426;28;20048;-67
2021/04/11 07:30:24;;;;;;;50.50;32.97;;;11.50;96.30;;;;;;5010723;28;20030;-68
2021/04/11 07:33:21;;;;;;;49.00;33.80;;;11.50;96.10;;;;;;4995832;28;20033;-68
2021/04/11 07:36:10;;;;;;;47.33;31.52;;;11.60;96.00;;;;;;5021823;28;20092;-68
2021/04/11 07:38:54;;;;;;;46.33;30.88;;;11.60;95.90;;;;;;4993737;28;20046;-68
2021/04/11 07:41:57;;;;;;;44.78;31.65;;;11.70;96.00;;;;;;5021855;28;20061;-68
2021/04/11 07:44:44;;;;;;;45.00;30.33;;;11.80;95.70;;;;;;5033399;28;20053;-67
2021/04/11 07:47:28;;;;;;;48.53;31.58;;;11.90;95.60;;;;;;5033115;28;20025;-68
2021/04/11 07:50:03;;;;;;;43.53;29.80;;;12.00;95.40;;;;;;5014495;28;20066;-67
2021/04/11 07:53:03;;;;;;;38.25;27.27;;;12.10;95.50;;;;;;5033412;28;20445;-68
2021/04/11 07:56:08;;;;;;;43.63;30.02;;;12.30;95.50;;;;;;5013366;28;20029;-68
2021/04/11 07:59:19;;;;;;;39.60;26.70;;;12.50;95.40;;;;;;4993898;28;20042;-68
2021/04/11 08:02:03;;;;;;;41.70;28.05;;;12.70;95.20;;;;;;4980986;28;20050;-68
2021/04/11 08:05:08;;;;;;;39.17;26.58;;;12.80;95.20;;;;;;4993224;28;20096;-69
2021/04/11 08:07:58;;;;;;;35.00;24.58;;;13.00;95.00;;;;;;4983407;28;20037;-68
2021/04/11 08:10:50;;;;;;;39.15;25.98;;;13.20;94.70;;;;;;5017143;28;20026;-67
2021/04/11 08:13:39;;;;;;;39.63;24.52;;;13.30;94.40;;;;;;5033129;28;20040;-67
2021/04/11 08:16:30;;;;;;;36.08;23.48;;;13.50;94.20;;;;;;5028042;28;20025;-68
2021/04/11 08:19:22;;;;;;;34.70;23.73;;;13.60;93.70;;;;;;5032602;28;20041;-67
2021/04/11 08:22:29;;;;;;;30.30;21.75;;;13.70;93.30;;;;;;5013345;28;20120;-68
2021/04/11 08:25:34;;;;;;;35.40;22.63;;;13.80;92.70;;;;;;5020244;28;20046;-68
2021/04/11 08:28:17;;;;;;;27.45;22.02;;;13.90;92.70;;;;;;5016822;28;20026;-68
2021/04/11 08:31:24;;;;;;;30.95;21.15;;;14.00;92.40;;;;;;5010543;28;20037;-68
2021/04/11 08:33:55;;;;;;;28.05;18.33;;;14.10;92.10;;;;;;5032424;28;20129;-68
2021/04/11 08:36:45;;;;;;;26.98;19.33;;;14.30;91.80;;;;;;5012488;28;20025;-67
2021/04/11 08:39:36;;;;;;;28.48;21.65;;;14.30;91.40;;;;;;5032214;28;20048;-68
2021/04/11 08:42:23;;;;;;;30.55;19.98;;;14.50;90.90;;;;;;5031043;28;20045;-68
2021/04/11 08:45:23;;;;;;;27.20;20.08;;;14.50;90.80;;;;;;5028490;28;20087;-68
2021/04/11 08:48:28;;;;;;;29.55;20.00;;;14.60;90.90;;;;;;5032482;28;20029;-67
2021/04/11 08:51:01;;;;;;;29.75;20.48;;;14.70;90.90;;;;;;5005776;28;20033;-68
2021/04/11 08:53:48;;;;;;;24.40;18.50;;;14.80;90.20;;;;;;5014891;28;20117;-68
2021/04/11 08:56:23;;;;;;;28.85;20.35;;;15.00;90.00;;;;;;5022972;28;20394;-68
2021/04/11 08:58:57;;;;;;;29.55;19.42;;;15.10;90.00;;;;;;5011433;28;20050;-68
2021/04/11 09:01:41;;;;;;;23.90;17.35;;;15.20;89.20;;;;;;5009063;28;20068;-68
2021/04/11 09:04:32;;;;;;;25.95;18.70;;;15.40;89.00;;;;;;5011150;28;20044;-68
2021/04/11 09:07:35;;;;;;;29.83;17.33;;;15.50;88.20;;;;;;5010884;28;20425;-68
2021/04/11 09:10:06;;;;;;;25.52;17.80;;;15.60;86.70;;;;;;4973243;28;20076;-67
2021/04/11 09:12:43;;;;;;;24.90;16.08;;;15.70;84.50;;;;;;5013921;28;20029;-69
2021/04/11 09:15:12;;;;;;;22.27;16.60;;;15.80;85.10;;;;;;5015081;28;20038;-68
2021/04/11 09:17:59;;;;;;;22.65;15.73;;;15.90;84.80;;;;;;5010578;28;20041;-68
2021/04/11 09:20:54;;;;;;;20.05;15.60;;;16.00;84.40;;;;;;5008687;28;20030;-68
2021/04/11 09:23:55;;;;;;;23.35;15.07;;;16.10;83.80;;;;;;5012183;28;20045;-68
2021/04/11 09:26:35;;;;;;;20.35;15.18;;;16.20;83.60;;;;;;5029221;28;20053;-68
2021/04/11 09:29:47;;;;;;;22.35;14.55;;;16.30;82.50;;;;;;5014293;28;20054;-69
2021/04/11 09:32:25;;;;;;;20.58;14.68;;;16.40;82.00;;;;;;5011494;28;20038;-68
2021/04/11 09:35:21;;;;;;;19.90;14.10;;;16.50;81.30;;;;;;5009024;28;20037;-68
2021/04/11 09:38:08;;;;;;;21.70;15.13;;;16.60;80.80;;;;;;5019240;28;20029;-68
2021/04/11 09:40:58;;;;;;;19.65;14.35;;;16.80;79.90;;;;;;5020288;28;20030;-69
2021/04/11 09:43:53;;;;;;;19.98;13.05;;;16.90;79.00;;;;;;5010599;28;20026;-69
2021/04/11 09:46:45;;;;;;;17.70;12.93;;;17.00;78.30;;;;;;5014480;28;20048;-69
2021/04/11 09:49:37;;;;;;;20.38;12.35;;;17.10;77.70;;;;;;5026220;28;20294;-68
2021/04/11 09:52:31;;;;;;;19.20;13.05;;;17.00;77.20;;;;;;5028250;28;20517;-68
2021/04/11 09:55:23;;;;;;;18.00;13.20;;;16.90;76.80;;;;;;5027569;28;20046;-68
2021/04/11 09:58:01;;;;;;;19.33;14.00;;;16.90;77.10;;;;;;5033064;28;20052;-69
2021/04/11 10:00:43;;;;;;;20.38;13.48;;;16.90;77.10;;;;;;5031913;28;20118;-68
2021/04/11 10:03:17;;;;;;;18.15;13.15;;;16.80;77.30;;;;;;5034792;28;20037;-68
2021/04/11 10:06:08;;;;;;;17.25;12.52;;;16.90;76.80;;;;;;5016131;28;20058;-68
2021/04/11 10:08:59;;;;;;;20.58;13.45;;;16.80;77.20;;;;;;5015885;28;20049;-68
2021/04/11 10:12:07;;;;;;;24.20;14.98;;;16.80;76.60;;;;;;5027368;28;20044;-68
2021/04/11 10:14:32;;;;;;;22.55;13.75;;;16.80;76.60;;;;;;5018704;28;20022;-68
2021/04/11 10:17:01;;;;;;;18.92;14.07;;;16.80;76.50;;;;;;5031844;28;20132;-68
2021/04/11 10:19:38;;;;;;;18.27;13.55;;;16.80;76.00;;;;;;5014728;28;20434;-68
2021/04/11 10:22:10;;;;;;;20.83;14.20;;;16.90;76.00;;;;;;5033909;28;20084;-69
2021/04/11 10:24:45;;;;;;;16.92;12.52;;;16.90;76.30;;;;;;5025040;28;20056;-69
2021/04/11 10:27:28;;;;;;;19.27;14.50;;;17.00;75.90;;;;;;4996065;28;20048;-69
2021/04/11 10:29:56;;;;;;;19.77;13.95;;;17.10;76.60;;;;;;5015414;28;20109;-69
2021/04/11 10:32:41;;;;;;;17.25;13.18;;;17.20;75.80;;;;;;5010234;28;20041;-69
2021/04/11 10:35:17;;;;;;;20.50;14.45;;;17.30;75.70;;;;;;5016507;28;20261;-68
2021/04/11 10:38:01;;;;;;;19.65;13.27;;;17.50;75.60;;;;;;5031942;28;20044;-69
2021/04/11 10:41:03;;;;;;;19.55;13.48;;;17.60;75.80;;;;;;5031110;28;20033;-68
2021/04/11 10:44:11;;;;;;;17.85;12.07;;;17.80;74.90;;;;;;5034453;28;20029;-67
2021/04/11 10:47:14;;;;;;;19.15;13.10;;;17.90;72.60;;;;;;5030788;28;20021;-68
2021/04/11 10:49:57;;;;;;;17.90;13.43;;;18.00;72.90;;;;;;5031188;28;20017;-68
2021/04/11 10:52:50;;;;;;;16.83;11.70;;;18.10;72.80;;;;;;4993939;28;20034;-68
2021/04/11 10:55:26;;;;;;;17.83;12.23;;;18.20;72.40;;;;;;5005284;28;20129;-69
2021/04/11 10:58:16;;;;;;;16.55;12.30;;;18.30;72.00;;;;;;5023256;28;20379;-69
2021/04/11 11:01:00;;;;;;;18.20;11.60;;;18.40;72.30;;;;;;5020648;28;20073;-68
2021/04/11 11:03:44;;;;;;;16.52;11.63;;;18.50;71.20;;;;;;5033830;28;20030;-69
2021/04/11 11:06:37;;;;;;;17.65;11.90;;;18.50;69.90;;;;;;5028459;28;20039;-68
2021/04/11 11:09:03;;;;;;;15.65;11.40;;;18.60;70.00;;;;;;5013600;28;20041;-67
2021/04/11 11:12:08;;;;;;;16.17;10.35;;;18.60;69.80;;;;;;5011984;28;20026;-68
2021/04/11 11:14:50;;;;;;;17.20;10.38;;;18.70;69.80;;;;;;5012729;28;20034;-68
2021/04/11 11:17:38;;;;;;;13.57;8.68;;;18.80;68.60;;;;;;4993763;28;20026;-68
2021/04/11 11:20:06;;;;;;;12.05;9.07;;;18.90;68.60;;;;;;4996894;28;20467;-68
2021/04/11 11:22:58;;;;;;;15.57;10.23;;;18.90;67.70;;;;;;5013961;28;20026;-69
2021/04/11 11:25:42;;;;;;;11.05;8.68;;;19.00;67.00;;;;;;5018650;28;20485;-68
2021/04/11 11:28:23;;;;;;;15.43;8.77;;;19.00;67.00;;;;;;5015620;28;20037;-69
2021/04/11 11:31:30;;;;;;;14.13;9.25;;;19.10;66.20;;;;;;5012754;28;20037;-68
2021/04/11 11:34:12;;;;;;;13.45;8.55;;;19.20;66.10;;;;;;5030846;28;20030;-68
2021/04/11 11:36:51;;;;;;;12.13;8.13;;;19.20;66.10;;;;;;5028365;28;20032;-68
2021/04/11 11:39:37;;;;;;;10.48;7.82;;;19.30;65.70;;;;;;5033688;28;20390;-68
2021/04/11 11:42:29;;;;;;;11.32;8.75;;;19.40;65.10;;;;;;5032598;28;20040;-68
2021/04/11 11:45:18;;;;;;;12.13;7.80;;;19.40;64.20;;;;;;5029695;28;20439;-68
2021/04/11 11:48:12;;;;;;;10.70;7.38;;;19.50;63.60;;;;;;5033247;28;20439;-69
2021/04/11 11:50:56;;;;;;;10.48;6.35;;;19.50;64.30;;;;;;5029743;28;20398;-68
2021/04/11 11:53:35;;;;;;;12.25;6.70;;;19.60;64.10;;;;;;5025212;28;20113;-68
2021/04/11 11:56:21;;;;;;;9.30;6.47;;;19.70;63.40;;;;;;5018117;28;20430;-68
2021/04/11 11:58:56;;;;;;;8.77;5.97;;;19.70;62.90;;;;;;5029509;28;20389;-68
2021/04/11 12:01:30;;;;;;;9.25;6.18;;;19.70;61.70;;;;;;5028417;28;20045;-68
2021/04/11 12:04:43;;;;;;;12.73;6.97;;;19.70;61.10;;;;;;5031009;28;20394;-68
2021/04/11 12:07:26;;;;;;;9.65;5.57;;;19.70;61.60;;;;;;5024482;28;20128;-68
2021/04/11 12:10:20;;;;;;;7.68;5.43;;;19.80;60.40;;;;;;5029744;28;20545;-69
2021/04/11 12:13:00;;;;;;;8.80;6.10;;;19.80;60.90;;;;;;5032633;28;20382;-69
2021/04/11 12:15:33;;;;;;;8.35;5.55;;;19.90;60.60;;;;;;5018662;28;20482;-68
2021/04/11 12:18:07;;;;;;;9.90;6.28;;;19.90;59.60;;;;;;5023475;28;20371;-69
2021/04/11 12:20:42;;;;;;;8.75;5.05;;;19.90;59.00;;;;;;5017611;28;20032;-68
2021/04/11 12:23:16;;;;;;;7.63;5.25;;;19.90;58.80;;;;;;5032175;28;20508;-69
2021/04/11 12:25:42;;;;;;;8.48;5.32;;;20.00;58.40;;;;;;5028989;28;20486;-68
2021/04/11 12:28:21;;;;;;;9.73;5.53;;;20.00;58.50;;;;;;5023331;28;20026;-68
2021/04/11 12:30:46;;;;;;;8.30;5.50;;;20.00;57.90;;;;;;5017288;28;20033;-69
2021/04/11 12:33:12;;;;;;;9.00;5.35;;;20.10;58.40;;;;;;5014324;28;20029;-69
2021/04/11 12:35:44;;;;;;;6.65;4.85;;;20.10;57.80;;;;;;5014894;28;20041;-68
2021/04/11 12:38:21;;;;;;;9.40;5.82;;;20.20;57.10;;;;;;5012260;28;20037;-68
2021/04/11 12:41:11;;;;;;;7.03;5.28;;;20.20;57.40;;;;;;5019367;28;20033;-68
2021/04/11 12:44:04;;;;;;;8.20;5.03;;;20.30;57.00;;;;;;4996186;28;20503;-68
2021/04/11 12:46:57;;;;;;;10.43;5.45;;;20.50;56.80;;;;;;5020745;28;20145;-69
2021/04/11 12:49:28;;;;;;;7.45;4.90;;;20.60;55.90;;;;;;5012663;28;20478;-67
2021/04/11 12:52:09;;;;;;;7.32;4.53;;;20.70;55.10;;;;;;5020825;28;20069;-67
2021/04/11 12:54:39;;;;;;;8.25;5.10;;;20.80;55.50;;;;;;5010622;28;20026;-69
2021/04/11 12:57:05;;;;;;;7.38;4.30;;;20.80;55.30;;;;;;5020626;28;20049;-68
2021/04/11 12:59:41;;;;;;;8.90;5.25;;;20.90;54.80;;;;;;4981703;28;20026;-68
2021/04/11 13:02:15;;;;;;;9.73;5.05;;;21.00;54.50;;;;;;4982190;28;20399;-68
2021/04/11 13:04:47;;;;;;;9.50;5.45;;;21.00;54.10;;;;;;5014633;28;20049;-70
2021/04/11 13:07:27;;;;;;;5.60;3.97;;;21.10;53.60;;;;;;5013420;28;20038;-68
2021/04/11 13:10:15;;;;;;;8.95;4.90;;;21.10;53.30;;;;;;5012103;28;20045;-69
2021/04/11 13:12:47;;;;;;;7.80;4.55;;;21.20;53.50;;;;;;5011246;28;20066;-68
2021/04/11 13:15:48;;;;;;;9.63;4.65;;;21.20;53.00;;;;;;5009588;28;20405;-69
2021/04/11 13:18:36;;;;;;;7.95;3.85;;;21.30;52.50;;;;;;4992189;28;20042;-68
2021/04/11 13:21:28;;;;;;;6.55;4.05;;;21.50;52.90;;;;;;5004264;28;20030;-70
2021/04/11 13:24:17;;;;;;;9.63;4.72;;;21.70;52.60;;;;;;5011038;28;20382;-68
2021/04/11 13:26:52;;;;;;;7.70;3.78;;;21.90;52.00;;;;;;5008917;28;20029;-68
2021/04/11 13:29:30;;;;;;;6.68;4.10;;;22.00;51.10;;;;;;4998247;28;20030;-69
2021/04/11 13:32:15;;;;;;;8.57;4.18;;;21.90;51.50;;;;;;5019955;28;20032;-69
2021/04/11 13:34:53;;;;;;;5.65;4.20;;;21.90;51.30;;;;;;5028363;28;20040;-68
2021/04/11 13:37:19;;;;;;;6.82;3.85;;;22.00;51.40;;;;;;5016527;28;20069;-68
2021/04/11 13:39:49;;;;;;;9.35;4.20;;;22.00;51.30;;;;;;5010136;28;20053;-68
2021/04/11 13:42:45;;;;;;;4.82;2.90;;;22.10;51.00;;;;;;5023114;28;20022;-68